• Join FlightAware (Why Join?)
  • Login
  • US Flag 
12:36PM EDT


 

Airport Tracker/Info


-or-


 

Live Flight TrackerFlight Track Log ✈ N191TG ✈ 04-May-2013 ✈ KPAO - KHWD

Flight Track Log - Related Links

Times and Time Zones

All times are in EDT time to prevent confusion due to time zone crossing. See the N191TG flight status page for this flight to view local times or setup timezone preferences in your user account.

Time Position Orientation Groundspeed Altitude Reporting Facility
EDT Latitude Longitude Course Direction KTS MPH feet Rate Location/Type
01:03PM 37.4667 -122.1167 38° Northeast 81 93 300  Level Northern Cal TRACON
01:04PM 37.4833 -122.1000 38° Northeast 81 93 1,000 660 Climbing Northern Cal TRACON
01:05PM 37.5000 -122.0667 58° Northeast 77 89 1,700 600 Climbing Northern Cal TRACON
01:06PM 37.5000 -122.0500 90° East 78 90 2,300 540 Climbing Northern Cal TRACON
01:07PM 37.5167 -122.0333 38° Northeast 79 91 2,800 540 Climbing Northern Cal TRACON
01:08PM 37.5333 -122.0000 58° Northeast 70 81 3,400 600 Climbing Northern Cal TRACON
01:09PM 37.5333 -121.9833 90° East 75 86 4,000 300 Climbing Northern Cal TRACON
01:10PM 37.5500 -121.9500 58° Northeast 97 112 4,000  Level Northern Cal TRACON
01:11PM 37.5667 -121.9333 38° Northeast 100 115 4,000  Level Northern Cal TRACON
01:12PM 37.5833 -121.9000 58° Northeast 102 117 4,000  Level Northern Cal TRACON
01:13PM 37.6000 -121.9000 360° North 123 142 4,000 -120 Level Northern Cal TRACON
01:14PM 37.5833 -121.9333 238° Southwest 141 162 3,800 -420 Descending Northern Cal TRACON
01:15PM 37.5833 -121.9667 270° West 94 108 3,200 -660 Descending Northern Cal TRACON
01:16PM 37.6000 -122.0000 302° West 95 109 2,500 -600 Descending Northern Cal TRACON
01:17PM 37.6000 -122.0167 270° West 98 113 2,100 -480 Descending Northern Cal TRACON
01:18PM 37.6167 -122.0500 302° West 95 109 1,600 -360 Descending Northern Cal TRACON
01:19PM 37.6250 -122.0564 329° Northwest 96 110 1,600 120 Level Oakland Center
01:21PM 37.6500 -122.1167 293° West  Level FlightAware Approximate
01:28PM 37.6589 -122.1217 293° West  Level Estimated
01:29PM 37.6589 -122.1217 293° West  Level Estimated
01:33PM 37.3167 -122.1833 293° West 115 132 3,800  Level Northern Cal TRACON
01:35PM 37.2833 -122.1333 130° Southeast 121 139 4,600 180 Climbing Northern Cal TRACON
01:36PM 37.2667 -122.1000 122° Southeast 118 136 4,500  Descending Northern Cal TRACON
01:37PM 37.2500 -122.0667 122° Southeast 111 128 4,600  Climbing Northern Cal TRACON
01:38PM 37.2333 -122.0333 122° Southeast 123 142 4,500 -60 Descending Northern Cal TRACON
01:39PM 37.2000 -122.0000 141° Southeast 121 139 4,500  Level Northern Cal TRACON
01:40PM 37.1833 -121.9667 122° Southeast 124 143 4,500  Level Northern Cal TRACON
01:41PM 37.2000 -121.9500 39° Northeast 119 137 4,500 -180 Level Northern Cal TRACON
01:42PM 37.2333 -121.9500 360° North 110 127 4,200 -600 Descending Northern Cal TRACON
01:43PM 37.2500 -121.9667 321° Northwest 94 108 3,400 -720 Descending Northern Cal TRACON
01:45PM 37.3000 -121.9833 345° North 90 104 2,200 -600 Descending Northern Cal TRACON
01:46PM 37.3333 -122.0000 338° Northwest 94 108 1,700 -480 Descending Northern Cal TRACON
01:47PM 37.3500 -122.0167 322° Northwest 93 107 1,300 -540 Descending Northern Cal TRACON
01:48PM 37.3833 -122.0333 338° Northwest 91 105 700 -120 Descending Northern Cal TRACON
01:50PM 37.4000 -122.0667 302° West 86 99 1,100 300 Climbing Northern Cal TRACON
01:51PM 37.3833 -122.1000 238° Southwest 94 108 1,700 540 Climbing Northern Cal TRACON
01:52PM 37.3833 -122.1333 270° West 107 123 2,200 480 Climbing Northern Cal TRACON
01:53PM 37.3667 -122.1667 238° Southwest 106 122 2,700 480 Climbing Northern Cal TRACON
01:54PM 37.3500 -122.1500 142° Southeast 99 114 3,200 480 Climbing Northern Cal TRACON
01:55PM 37.3333 -122.1333 142° Southeast 99 114 3,700 480 Climbing Northern Cal TRACON
01:56PM 37.3167 -122.1000 122° Southeast 97 112 4,200 360 Climbing Northern Cal TRACON
01:57PM 37.3000 -122.0833 141° Southeast 99 114 4,500 120 Climbing Northern Cal TRACON
01:58PM 37.2667 -122.0500 141° Southeast 120 138 4,500  Level Northern Cal TRACON
01:59PM 37.2500 -122.0167 122° Southeast 119 137 4,500  Level Northern Cal TRACON
02:00PM 37.2167 -122.0000 158° South 120 138 4,500  Level Northern Cal TRACON
02:01PM 37.2167 -122.0333 270° West 125 144 4,500  Level Northern Cal TRACON
02:02PM 37.2500 -122.0167 22° Northeast 107 123 4,500 -120 Level Northern Cal TRACON
02:03PM 37.2667 -122.0167 360° North 108 124 4,300 -360 Descending Northern Cal TRACON
02:04PM 37.3000 -122.0333 338° Northwest 98 113 3,800 -600 Descending Northern Cal TRACON
02:05PM 37.3167 -122.0500 322° Northwest 99 114 3,200 -720 Descending Northern Cal TRACON
02:06PM 37.3500 -122.0500 360° North 90 104 2,500 -660 Descending Northern Cal TRACON
02:07PM 37.3667 -122.0667 322° Northwest 87 100 2,000 -360 Descending Northern Cal TRACON
02:08PM 37.4000 -122.0833 338° Northwest 94 108 1,800 -420 Descending Northern Cal TRACON
02:09PM 37.4167 -122.0833 360° North 89 102 1,200 -660 Descending Northern Cal TRACON
02:10PM 37.4333 -122.1000 322° Northwest 92 106 500 -720 Descending Northern Cal TRACON